sensor_id;sensor_type;location;lat;lon;timestamp;pressure;altitude;pressure_sealevel;temperature;humidity
8366;BME280;4220;42.502;24.188;2023-01-27T00:02:15;94402.09;;;2.50;100.00
8366;BME280;4220;42.502;24.188;2023-01-27T00:04:42;94396.28;;;2.55;100.00
8366;BME280;4220;42.502;24.188;2023-01-27T00:07:08;94371.09;;;2.54;100.00
8366;BME280;4220;42.502;24.188;2023-01-27T00:09:37;94374.34;;;2.56;100.00
8366;BME280;4220;42.502;24.188;2023-01-27T00:12:06;94332.72;;;2.12;100.00
8366;BME280;4220;42.502;24.188;2023-01-27T00:14:50;94351.34;;;2.24;100.00
8366;BME280;4220;42.502;24.188;2023-01-27T00:17:17;94346.00;;;2.11;100.00
8366;BME280;4220;42.502;24.188;2023-01-27T00:19:43;94343.25;;;2.19;100.00
8366;BME280;4220;42.502;24.188;2023-01-27T00:22:10;94356.81;;;2.29;100.00
8366;BME280;4220;42.502;24.188;2023-01-27T00:24:56;94370.13;;;2.34;100.00
8366;BME280;4220;42.502;24.188;2023-01-27T00:27:23;94371.56;;;2.36;100.00
8366;BME280;4220;42.502;24.188;2023-01-27T00:29:51;94364.16;;;2.40;100.00
8366;BME280;4220;42.502;24.188;2023-01-27T00:32:18;94323.09;;;2.13;100.00
8366;BME280;4220;42.502;24.188;2023-01-27T00:35:03;94364.56;;;2.43;100.00
8366;BME280;4220;42.502;24.188;2023-01-27T00:37:30;94365.59;;;2.42;100.00
8366;BME280;4220;42.502;24.188;2023-01-27T00:39:58;94364.78;;;2.42;100.00
8366;BME280;4220;42.502;24.188;2023-01-27T00:42:25;94391.44;;;2.52;100.00
8366;BME280;4220;42.502;24.188;2023-01-27T00:44:52;94406.28;;;2.45;100.00
8366;BME280;4220;42.502;24.188;2023-01-27T00:47:36;94412.75;;;2.49;100.00
8366;BME280;4220;42.502;24.188;2023-01-27T00:50:03;94405.91;;;2.48;100.00
8366;BME280;4220;42.502;24.188;2023-01-27T00:52:30;94409.94;;;2.50;100.00
8366;BME280;4220;42.502;24.188;2023-01-27T00:54:59;94411.56;;;2.51;100.00
8366;BME280;4220;42.502;24.188;2023-01-27T00:57:25;94415.19;;;2.50;100.00
8366;BME280;4220;42.502;24.188;2023-01-27T00:59:52;94417.41;;;2.53;100.00
8366;BME280;4220;42.502;24.188;2023-01-27T01:02:19;94402.19;;;2.36;100.00
8366;BME280;4220;42.502;24.188;2023-01-27T01:04:46;94399.22;;;2.24;100.00
8366;BME280;4220;42.502;24.188;2023-01-27T01:07:13;94387.03;;;2.10;100.00
8366;BME280;4220;42.502;24.188;2023-01-27T01:09:39;94386.28;;;1.95;100.00
8366;BME280;4220;42.502;24.188;2023-01-27T01:12:07;94372.84;;;1.77;100.00
8366;BME280;4220;42.502;24.188;2023-01-27T01:14:34;94371.72;;;1.86;100.00
8366;BME280;4220;42.502;24.188;2023-01-27T01:17:01;94361.94;;;1.94;100.00
8366;BME280;4220;42.502;24.188;2023-01-27T01:19:28;94356.69;;;1.94;100.00
8366;BME280;4220;42.502;24.188;2023-01-27T01:21:55;94345.00;;;1.90;100.00
8366;BME280;4220;42.502;24.188;2023-01-27T01:24:22;94338.78;;;2.13;100.00
8366;BME280;4220;42.502;24.188;2023-01-27T01:26:50;94338.47;;;2.22;100.00
8366;BME280;4220;42.502;24.188;2023-01-27T01:29:18;94336.81;;;2.21;100.00
8366;BME280;4220;42.502;24.188;2023-01-27T01:31:45;94359.06;;;2.32;100.00
8366;BME280;4220;42.502;24.188;2023-01-27T01:34:12;94357.28;;;2.39;100.00
8366;BME280;4220;42.502;24.188;2023-01-27T01:36:39;94352.75;;;2.26;100.00
8366;BME280;4220;42.502;24.188;2023-01-27T01:39:06;94355.00;;;2.29;100.00
8366;BME280;4220;42.502;24.188;2023-01-27T01:41:32;94345.22;;;2.38;100.00
8366;BME280;4220;42.502;24.188;2023-01-27T01:44:22;94339.75;;;2.33;100.00
8366;BME280;4220;42.502;24.188;2023-01-27T01:46:49;94332.31;;;2.36;100.00
8366;BME280;4220;42.502;24.188;2023-01-27T01:49:18;94325.16;;;2.45;100.00
8366;BME280;4220;42.502;24.188;2023-01-27T01:51:48;94307.44;;;2.47;100.00
8366;BME280;4220;42.502;24.188;2023-01-27T01:54:17;94315.34;;;2.53;100.00
8366;BME280;4220;42.502;24.188;2023-01-27T01:56:47;94313.13;;;2.50;100.00
8366;BME280;4220;42.502;24.188;2023-01-27T01:59:18;94302.78;;;2.42;100.00
8366;BME280;4220;42.502;24.188;2023-01-27T02:01:49;94296.00;;;2.48;100.00
8366;BME280;4220;42.502;24.188;2023-01-27T02:04:22;94304.47;;;2.50;100.00
8366;BME280;4220;42.502;24.188;2023-01-27T02:06:55;94290.75;;;2.48;100.00
8366;BME280;4220;42.502;24.188;2023-01-27T02:09:26;94285.81;;;2.32;100.00
8366;BME280;4220;42.502;24.188;2023-01-27T02:11:54;94292.28;;;2.36;100.00
8366;BME280;4220;42.502;24.188;2023-01-27T02:14:21;94295.56;;;2.44;100.00
8366;BME280;4220;42.502;24.188;2023-01-27T02:16:49;94277.78;;;2.33;100.00
8366;BME280;4220;42.502;24.188;2023-01-27T02:19:21;94292.19;;;2.23;100.00
8366;BME280;4220;42.502;24.188;2023-01-27T02:21:51;94291.84;;;2.32;100.00
8366;BME280;4220;42.502;24.188;2023-01-27T02:24:21;94293.53;;;2.40;100.00
8366;BME280;4220;42.502;24.188;2023-01-27T02:26:52;94308.19;;;2.41;100.00
8366;BME280;4220;42.502;24.188;2023-01-27T02:29:19;94323.28;;;2.39;100.00
8366;BME280;4220;42.502;24.188;2023-01-27T02:31:47;94318.22;;;2.31;100.00
8366;BME280;4220;42.502;24.188;2023-01-27T02:34:15;94322.81;;;2.29;100.00
8366;BME280;4220;42.502;24.188;2023-01-27T02:36:45;94329.41;;;2.25;100.00
8366;BME280;4220;42.502;24.188;2023-01-27T02:39:14;94270.91;;;2.05;100.00
8366;BME280;4220;42.502;24.188;2023-01-27T02:41:44;94305.78;;;2.39;100.00
8366;BME280;4220;42.502;24.188;2023-01-27T02:44:13;94287.13;;;2.49;100.00
8366;BME280;4220;42.502;24.188;2023-01-27T02:46:39;94264.50;;;2.35;100.00
8366;BME280;4220;42.502;24.188;2023-01-27T02:49:06;94249.03;;;2.12;100.00
8366;BME280;4220;42.502;24.188;2023-01-27T02:51:33;94241.41;;;1.89;100.00
8366;BME280;4220;42.502;24.188;2023-01-27T02:54:00;94160.81;;;1.38;100.00
8366;BME280;4220;42.502;24.188;2023-01-27T02:56:27;94229.94;;;1.84;100.00
8366;BME280;4220;42.502;24.188;2023-01-27T02:58:53;94228.09;;;1.84;100.00
8366;BME280;4220;42.502;24.188;2023-01-27T03:01:22;94226.16;;;1.86;100.00
8366;BME280;4220;42.502;24.188;2023-01-27T03:03:49;94237.13;;;2.03;100.00
8366;BME280;4220;42.502;24.188;2023-01-27T03:06:17;94235.94;;;2.06;100.00
8366;BME280;4220;42.502;24.188;2023-01-27T03:08:44;94240.09;;;2.00;100.00
8366;BME280;4220;42.502;24.188;2023-01-27T03:11:11;94214.41;;;2.04;100.00
8366;BME280;4220;42.502;24.188;2023-01-27T03:13:39;94161.25;;;1.96;100.00
8366;BME280;4220;42.502;24.188;2023-01-27T03:16:06;94192.44;;;2.32;100.00
8366;BME280;4220;42.502;24.188;2023-01-27T03:18:51;94191.22;;;2.28;100.00
8366;BME280;4220;42.502;24.188;2023-01-27T03:21:20;94217.88;;;2.45;100.00
8366;BME280;4220;42.502;24.188;2023-01-27T03:23:47;94215.06;;;2.46;100.00
8366;BME280;4220;42.502;24.188;2023-01-27T03:26:14;94224.53;;;2.47;100.00
8366;BME280;4220;42.502;24.188;2023-01-27T03:28:41;94235.75;;;2.41;100.00
8366;BME280;4220;42.502;24.188;2023-01-27T03:31:28;94233.94;;;2.42;100.00
8366;BME280;4220;42.502;24.188;2023-01-27T03:33:56;94238.00;;;2.44;100.00
8366;BME280;4220;42.502;24.188;2023-01-27T03:36:23;94245.25;;;2.49;100.00
8366;BME280;4220;42.502;24.188;2023-01-27T03:39:07;94258.94;;;2.51;100.00
8366;BME280;4220;42.502;24.188;2023-01-27T03:41:51;94239.03;;;2.50;100.00
8366;BME280;4220;42.502;24.188;2023-01-27T03:44:35;94247.88;;;2.49;100.00
8366;BME280;4220;42.502;24.188;2023-01-27T03:47:19;94233.56;;;2.45;100.00
8366;BME280;4220;42.502;24.188;2023-01-27T03:49:47;94261.44;;;2.59;100.00
8366;BME280;4220;42.502;24.188;2023-01-27T03:52:14;94264.28;;;2.64;100.00
8366;BME280;4220;42.502;24.188;2023-01-27T03:54:41;94253.81;;;2.64;100.00
8366;BME280;4220;42.502;24.188;2023-01-27T03:57:08;94243.53;;;2.62;100.00
8366;BME280;4220;42.502;24.188;2023-01-27T03:59:35;94255.03;;;2.68;100.00
8366;BME280;4220;42.502;24.188;2023-01-27T04:02:01;94255.44;;;2.65;100.00
8366;BME280;4220;42.502;24.188;2023-01-27T04:04:47;94247.41;;;2.39;100.00
8366;BME280;4220;42.502;24.188;2023-01-27T04:07:33;94254.13;;;2.48;100.00
8366;BME280;4220;42.502;24.188;2023-01-27T04:10:00;94255.56;;;2.50;100.00
8366;BME280;4220;42.502;24.188;2023-01-27T04:12:27;94259.19;;;2.56;100.00
8366;BME280;4220;42.502;24.188;2023-01-27T04:14:53;94266.47;;;2.60;100.00
8366;BME280;4220;42.502;24.188;2023-01-27T04:17:20;94266.28;;;2.62;100.00
8366;BME280;4220;42.502;24.188;2023-01-27T04:19:48;94255.72;;;2.49;100.00
8366;BME280;4220;42.502;24.188;2023-01-27T04:22:15;94262.75;;;2.48;100.00
8366;BME280;4220;42.502;24.188;2023-01-27T04:24:42;94263.53;;;2.42;100.00
8366;BME280;4220;42.502;24.188;2023-01-27T04:27:10;94261.53;;;2.44;100.00
8366;BME280;4220;42.502;24.188;2023-01-27T04:29:39;94246.81;;;2.43;100.00
8366;BME280;4220;42.502;24.188;2023-01-27T04:32:07;94257.75;;;2.53;100.00
8366;BME280;4220;42.502;24.188;2023-01-27T04:34:35;94250.16;;;2.58;100.00
8366;BME280;4220;42.502;24.188;2023-01-27T04:37:05;94219.06;;;2.42;100.00
8366;BME280;4220;42.502;24.188;2023-01-27T04:39:33;94250.94;;;2.52;100.00
8366;BME280;4220;42.502;24.188;2023-01-27T04:42:00;94245.97;;;2.36;100.00
8366;BME280;4220;42.502;24.188;2023-01-27T04:44:27;94238.81;;;2.17;100.00
8366;BME280;4220;42.502;24.188;2023-01-27T04:46:54;94239.38;;;2.06;100.00
8366;BME280;4220;42.502;24.188;2023-01-27T04:49:20;94244.16;;;2.03;100.00
8366;BME280;4220;42.502;24.188;2023-01-27T04:51:47;94246.63;;;2.11;100.00
8366;BME280;4220;42.502;24.188;2023-01-27T04:54:16;94247.16;;;2.27;100.00
8366;BME280;4220;42.502;24.188;2023-01-27T04:56:54;94248.44;;;2.38;100.00
8366;BME280;4220;42.502;24.188;2023-01-27T04:59:21;94253.47;;;2.46;100.00
8366;BME280;4220;42.502;24.188;2023-01-27T05:01:47;94244.84;;;2.45;100.00
8366;BME280;4220;42.502;24.188;2023-01-27T05:04:14;94256.78;;;2.54;100.00
8366;BME280;4220;42.502;24.188;2023-01-27T05:06:41;94245.69;;;2.52;100.00
8366;BME280;4220;42.502;24.188;2023-01-27T05:09:08;94251.34;;;2.56;100.00
8366;BME280;4220;42.502;24.188;2023-01-27T05:11:36;94248.13;;;2.60;100.00
8366;BME280;4220;42.502;24.188;2023-01-27T05:14:03;94250.97;;;2.65;100.00
8366;BME280;4220;42.502;24.188;2023-01-27T05:16:29;94249.41;;;2.71;100.00
8366;BME280;4220;42.502;24.188;2023-01-27T05:18:56;94245.41;;;2.75;100.00
8366;BME280;4220;42.502;24.188;2023-01-27T05:21:25;94225.25;;;2.76;100.00
8366;BME280;4220;42.502;24.188;2023-01-27T05:23:55;94234.75;;;2.83;100.00
8366;BME280;4220;42.502;24.188;2023-01-27T05:26:23;94224.72;;;2.87;100.00
8366;BME280;4220;42.502;24.188;2023-01-27T05:28:54;94228.75;;;2.89;100.00
8366;BME280;4220;42.502;24.188;2023-01-27T05:31:23;94224.34;;;2.90;100.00
8366;BME280;4220;42.502;24.188;2023-01-27T05:33:52;94210.78;;;2.80;100.00
8366;BME280;4220;42.502;24.188;2023-01-27T05:36:21;94230.56;;;2.89;100.00
8366;BME280;4220;42.502;24.188;2023-01-27T05:38:48;94221.31;;;2.93;100.00
8366;BME280;4220;42.502;24.188;2023-01-27T05:41:16;94225.38;;;3.02;100.00
8366;BME280;4220;42.502;24.188;2023-01-27T05:43:44;94231.41;;;3.02;100.00
8366;BME280;4220;42.502;24.188;2023-01-27T05:46:15;94225.78;;;2.99;100.00
8366;BME280;4220;42.502;24.188;2023-01-27T05:48:43;94243.31;;;3.05;100.00
8366;BME280;4220;42.502;24.188;2023-01-27T05:51:11;94245.75;;;3.06;100.00
8366;BME280;4220;42.502;24.188;2023-01-27T05:53:39;94244.72;;;3.07;100.00
8366;BME280;4220;42.502;24.188;2023-01-27T05:56:06;94251.59;;;3.08;100.00
8366;BME280;4220;42.502;24.188;2023-01-27T05:58:35;94251.59;;;3.08;100.00
8366;BME280;4220;42.502;24.188;2023-01-27T06:01:06;94248.16;;;3.08;100.00
8366;BME280;4220;42.502;24.188;2023-01-27T06:03:35;94251.38;;;3.03;100.00
8366;BME280;4220;42.502;24.188;2023-01-27T06:06:02;94261.47;;;3.06;100.00
8366;BME280;4220;42.502;24.188;2023-01-27T06:08:29;94270.91;;;3.07;100.00
8366;BME280;4220;42.502;24.188;2023-01-27T06:10:57;94264.91;;;3.07;100.00
8366;BME280;4220;42.502;24.188;2023-01-27T06:13:24;94270.31;;;3.05;100.00
8366;BME280;4220;42.502;24.188;2023-01-27T06:15:51;94232.13;;;2.83;100.00
8366;BME280;4220;42.502;24.188;2023-01-27T06:18:19;94264.91;;;3.07;100.00
8366;BME280;4220;42.502;24.188;2023-01-27T06:20:47;94272.16;;;3.11;100.00
8366;BME280;4220;42.502;24.188;2023-01-27T06:23:16;94268.53;;;3.12;100.00
8366;BME280;4220;42.502;24.188;2023-01-27T06:25:44;94259.84;;;3.05;100.00
8366;BME280;4220;42.502;24.188;2023-01-27T06:28:12;94259.59;;;3.00;100.00
8366;BME280;4220;42.502;24.188;2023-01-27T06:30:39;94265.25;;;2.97;100.00
8366;BME280;4220;42.502;24.188;2023-01-27T06:33:07;94260.94;;;2.83;100.00
8366;BME280;4220;42.502;24.188;2023-01-27T06:35:35;94265.13;;;2.71;100.00
8366;BME280;4220;42.502;24.188;2023-01-27T06:38:05;94265.84;;;2.58;100.00
8366;BME280;4220;42.502;24.188;2023-01-27T06:40:33;94258.56;;;2.54;100.00
8366;BME280;4220;42.502;24.188;2023-01-27T06:43:00;94262.28;;;2.38;100.00
8366;BME280;4220;42.502;24.188;2023-01-27T06:45:28;94252.41;;;2.34;100.00
8366;BME280;4220;42.502;24.188;2023-01-27T06:47:56;94261.34;;;2.46;100.00
8366;BME280;4220;42.502;24.188;2023-01-27T06:50:23;94262.38;;;2.51;100.00
8366;BME280;4220;42.502;24.188;2023-01-27T06:52:50;94250.88;;;2.46;100.00
8366;BME280;4220;42.502;24.188;2023-01-27T06:55:18;94255.88;;;2.41;100.00
8366;BME280;4220;42.502;24.188;2023-01-27T06:57:45;94249.97;;;2.26;100.00
8366;BME280;4220;42.502;24.188;2023-01-27T07:00:14;94256.69;;;2.41;100.00
8366;BME280;4220;42.502;24.188;2023-01-27T07:02:41;94260.00;;;2.56;100.00
8366;BME280;4220;42.502;24.188;2023-01-27T07:05:08;94259.47;;;2.68;100.00
8366;BME280;4220;42.502;24.188;2023-01-27T07:07:35;94263.53;;;2.77;100.00
8366;BME280;4220;42.502;24.188;2023-01-27T07:10:03;94282.81;;;2.69;100.00
8366;BME280;4220;42.502;24.188;2023-01-27T07:12:31;94271.00;;;2.80;100.00
8366;BME280;4220;42.502;24.188;2023-01-27T07:15:02;94267.59;;;2.79;100.00
8366;BME280;4220;42.502;24.188;2023-01-27T07:17:29;94263.78;;;2.88;100.00
8366;BME280;4220;42.502;24.188;2023-01-27T07:19:56;94264.03;;;3.00;100.00
8366;BME280;4220;42.502;24.188;2023-01-27T07:22:22;94264.69;;;3.08;100.00
8366;BME280;4220;42.502;24.188;2023-01-27T07:24:49;94278.44;;;3.17;100.00
8366;BME280;4220;42.502;24.188;2023-01-27T07:27:16;94273.22;;;3.23;100.00
8366;BME280;4220;42.502;24.188;2023-01-27T07:29:44;94277.47;;;3.31;100.00
8366;BME280;4220;42.502;24.188;2023-01-27T07:32:11;94277.47;;;3.38;100.00
8366;BME280;4220;42.502;24.188;2023-01-27T07:34:38;94273.06;;;3.45;100.00
8366;BME280;4220;42.502;24.188;2023-01-27T07:37:05;94267.84;;;3.51;100.00
8366;BME280;4220;42.502;24.188;2023-01-27T07:39:32;94270.47;;;3.51;100.00
8366;BME280;4220;42.502;24.188;2023-01-27T07:41:59;94277.16;;;3.60;100.00
8366;BME280;4220;42.502;24.188;2023-01-27T07:44:26;94283.81;;;3.63;100.00
8366;BME280;4220;42.502;24.188;2023-01-27T07:46:57;94283.97;;;3.61;100.00
8366;BME280;4220;42.502;24.188;2023-01-27T07:49:24;94277.31;;;3.52;100.00
8366;BME280;4220;42.502;24.188;2023-01-27T07:51:51;94285.78;;;3.54;100.00
8366;BME280;4220;42.502;24.188;2023-01-27T07:54:18;94278.88;;;3.34;100.00
8366;BME280;4220;42.502;24.188;2023-01-27T07:56:45;94275.41;;;3.20;100.00
8366;BME280;4220;42.502;24.188;2023-01-27T07:59:12;94284.06;;;3.20;100.00
8366;BME280;4220;42.502;24.188;2023-01-27T08:01:38;94272.19;;;3.24;100.00
8366;BME280;4220;42.502;24.188;2023-01-27T08:04:08;94278.66;;;3.28;100.00
8366;BME280;4220;42.502;24.188;2023-01-27T08:06:36;94282.50;;;3.33;100.00
8366;BME280;4220;42.502;24.188;2023-01-27T08:09:03;94274.69;;;3.46;100.00
8366;BME280;4220;42.502;24.188;2023-01-27T08:11:30;94269.47;;;3.52;100.00
8366;BME280;4220;42.502;24.188;2023-01-27T08:13:57;94268.47;;;3.60;100.00
8366;BME280;4220;42.502;24.188;2023-01-27T08:16:24;94273.53;;;3.68;100.00
8366;BME280;4220;42.502;24.188;2023-01-27T08:18:51;94275.56;;;3.79;100.00
8366;BME280;4220;42.502;24.188;2023-01-27T08:21:19;94277.38;;;3.91;100.00
8366;BME280;4220;42.502;24.188;2023-01-27T08:23:46;94242.28;;;3.86;100.00
8366;BME280;4220;42.502;24.188;2023-01-27T08:26:13;94266.28;;;4.16;100.00
8366;BME280;4220;42.502;24.188;2023-01-27T08:28:40;94266.31;;;4.09;100.00
8366;BME280;4220;42.502;24.188;2023-01-27T08:31:09;94266.31;;;4.09;100.00
8366;BME280;4220;42.502;24.188;2023-01-27T08:33:37;94263.47;;;4.17;100.00
8366;BME280;4220;42.502;24.188;2023-01-27T08:36:06;94250.56;;;4.09;100.00
8366;BME280;4220;42.502;24.188;2023-01-27T08:38:35;94219.88;;;4.03;100.00
8366;BME280;4220;42.502;24.188;2023-01-27T08:41:04;94228.78;;;4.15;100.00
8366;BME280;4220;42.502;24.188;2023-01-27T08:43:31;94259.63;;;4.46;100.00
8366;BME280;4220;42.502;24.188;2023-01-27T08:45:59;94246.91;;;4.49;100.00
8366;BME280;4220;42.502;24.188;2023-01-27T08:48:26;94254.56;;;4.64;100.00
8366;BME280;4220;42.502;24.188;2023-01-27T08:50:54;94235.97;;;4.52;100.00
8366;BME280;4220;42.502;24.188;2023-01-27T08:53:21;94245.44;;;4.60;100.00
8366;BME280;4220;42.502;24.188;2023-01-27T08:55:50;94247.84;;;4.75;100.00
8366;BME280;4220;42.502;24.188;2023-01-27T08:58:18;94207.09;;;4.59;100.00
8366;BME280;4220;42.502;24.188;2023-01-27T09:00:45;94216.38;;;4.61;100.00
8366;BME280;4220;42.502;24.188;2023-01-27T09:03:12;94241.13;;;4.92;100.00
8366;BME280;4220;42.502;24.188;2023-01-27T09:05:39;94227.34;;;5.03;100.00
8366;BME280;4220;42.502;24.188;2023-01-27T09:08:06;94206.78;;;4.87;100.00
8366;BME280;4220;42.502;24.188;2023-01-27T09:10:36;94231.50;;;4.66;100.00
8366;BME280;4220;42.502;24.188;2023-01-27T09:13:05;94232.31;;;4.60;100.00
8366;BME280;4220;42.502;24.188;2023-01-27T09:15:33;94225.50;;;4.39;100.00
8366;BME280;4220;42.502;24.188;2023-01-27T09:18:00;94183.94;;;4.23;100.00
8366;BME280;4220;42.502;24.188;2023-01-27T09:20:27;94220.19;;;4.66;100.00
8366;BME280;4220;42.502;24.188;2023-01-27T09:22:55;94196.78;;;4.64;100.00
8366;BME280;4220;42.502;24.188;2023-01-27T09:25:22;94224.13;;;4.94;100.00
8366;BME280;4220;42.502;24.188;2023-01-27T09:27:52;94222.81;;;4.66;100.00
8366;BME280;4220;42.502;24.188;2023-01-27T09:30:22;94228.09;;;4.59;100.00
8366;BME280;4220;42.502;24.188;2023-01-27T09:32:49;94224.72;;;4.32;100.00
8366;BME280;4220;42.502;24.188;2023-01-27T09:35:16;94223.09;;;4.31;100.00
8366;BME280;4220;42.502;24.188;2023-01-27T09:37:45;94223.50;;;4.28;100.00
8366;BME280;4220;42.502;24.188;2023-01-27T09:40:21;94215.84;;;4.01;100.00
8366;BME280;4220;42.502;24.188;2023-01-27T09:43:10;94219.66;;;3.98;100.00
8366;BME280;4220;42.502;24.188;2023-01-27T09:45:57;94222.69;;;3.69;100.00
8366;BME280;4220;42.502;24.188;2023-01-27T09:48:35;94222.88;;;3.48;100.00
8366;BME280;4220;42.502;24.188;2023-01-27T09:51:11;94220.22;;;3.21;100.00
8366;BME280;4220;42.502;24.188;2023-01-27T09:54:20;94213.97;;;3.29;100.00
8366;BME280;4220;42.502;24.188;2023-01-27T09:56:58;94208.75;;;3.36;100.00
8366;BME280;4220;42.502;24.188;2023-01-27T09:59:49;94213.81;;;3.44;100.00
8366;BME280;4220;42.502;24.188;2023-01-27T10:02:32;94219.47;;;3.60;100.00
8366;BME280;4220;42.502;24.188;2023-01-27T10:05:17;94199.50;;;3.72;100.00
8366;BME280;4220;42.502;24.188;2023-01-27T10:08:14;94198.69;;;3.78;100.00
8366;BME280;4220;42.502;24.188;2023-01-27T10:10:56;94199.09;;;3.82;100.00
8366;BME280;4220;42.502;24.188;2023-01-27T10:13:34;94196.47;;;3.88;100.00
8366;BME280;4220;42.502;24.188;2023-01-27T10:16:18;94194.25;;;3.98;100.00
8366;BME280;4220;42.502;24.188;2023-01-27T10:19:00;94180.69;;;4.28;100.00
8366;BME280;4220;42.502;24.188;2023-01-27T10:21:37;94183.03;;;4.62;100.00
8366;BME280;4220;42.502;24.188;2023-01-27T10:24:13;94190.78;;;4.95;100.00
8366;BME280;4220;42.502;24.188;2023-01-27T10:26:49;94190.06;;;5.19;100.00
8366;BME280;4220;42.502;24.188;2023-01-27T10:29:22;94182.50;;;5.36;100.00
8366;BME280;4220;42.502;24.188;2023-01-27T10:31:55;94181.78;;;5.53;100.00
8366;BME280;4220;42.502;24.188;2023-01-27T10:34:26;94186.13;;;5.66;100.00
8366;BME280;4220;42.502;24.188;2023-01-27T10:37:03;94180.06;;;5.65;100.00
8366;BME280;4220;42.502;24.188;2023-01-27T10:39:36;94173.38;;;5.69;100.00
8366;BME280;4220;42.502;24.188;2023-01-27T10:42:16;94167.16;;;5.64;100.00
8366;BME280;4220;42.502;24.188;2023-01-27T10:44:59;94152.19;;;5.64;100.00
8366;BME280;4220;42.502;24.188;2023-01-27T10:47:40;94149.41;;;5.77;100.00
8366;BME280;4220;42.502;24.188;2023-01-27T10:50:14;94155.66;;;5.89;100.00
8366;BME280;4220;42.502;24.188;2023-01-27T10:52:45;94152.31;;;6.01;100.00
8366;BME280;4220;42.502;24.188;2023-01-27T10:55:18;94151.47;;;6.07;100.00
8366;BME280;4220;42.502;24.188;2023-01-27T10:57:51;94159.63;;;6.17;100.00
8366;BME280;4220;42.502;24.188;2023-01-27T11:00:28;94159.00;;;6.21;100.00
8366;BME280;4220;42.502;24.188;2023-01-27T11:03:01;94148.09;;;6.18;100.00
8366;BME280;4220;42.502;24.188;2023-01-27T11:05:36;94119.97;;;5.93;100.00
8366;BME280;4220;42.502;24.188;2023-01-27T11:08:10;94155.19;;;5.92;100.00
8366;BME280;4220;42.502;24.188;2023-01-27T11:10:41;94140.56;;;5.47;100.00
8366;BME280;4220;42.502;24.188;2023-01-27T11:13:30;94140.69;;;4.90;100.00
8366;BME280;4220;42.502;24.188;2023-01-27T11:15:59;94137.59;;;4.55;100.00
8366;BME280;4220;42.502;24.188;2023-01-27T11:18:27;94107.19;;;4.41;100.00
8366;BME280;4220;42.502;24.188;2023-01-27T11:20:58;94114.91;;;4.23;100.00
8366;BME280;4220;42.502;24.188;2023-01-27T11:23:30;94120.19;;;4.03;100.00
8366;BME280;4220;42.502;24.188;2023-01-27T11:26:03;94122.84;;;3.77;100.00
8366;BME280;4220;42.502;24.188;2023-01-27T11:28:39;94126.31;;;3.71;100.00
8366;BME280;4220;42.502;24.188;2023-01-27T11:31:15;94118.25;;;3.53;100.00
8366;BME280;4220;42.502;24.188;2023-01-27T11:33:51;94119.22;;;3.52;100.00
8366;BME280;4220;42.502;24.188;2023-01-27T11:36:24;94119.22;;;3.52;100.00
8366;BME280;4220;42.502;24.188;2023-01-27T11:38:51;94111.38;;;3.65;100.00
8366;BME280;4220;42.502;24.188;2023-01-27T11:41:19;94087.59;;;3.60;100.00
8366;BME280;4220;42.502;24.188;2023-01-27T11:43:46;94108.34;;;3.87;100.00
8366;BME280;4220;42.502;24.188;2023-01-27T11:46:16;94107.31;;;3.95;100.00
8366;BME280;4220;42.502;24.188;2023-01-27T11:48:47;94100.63;;;3.99;100.00
8366;BME280;4220;42.502;24.188;2023-01-27T11:51:18;94095.00;;;3.89;100.00
8366;BME280;4220;42.502;24.188;2023-01-27T11:53:51;94113.34;;;3.89;100.00
8366;BME280;4220;42.502;24.188;2023-01-27T11:56:18;94086.59;;;3.48;100.00
8366;BME280;4220;42.502;24.188;2023-01-27T11:58:50;94114.19;;;3.57;100.00
8366;BME280;4220;42.502;24.188;2023-01-27T12:01:22;94098.69;;;3.49;100.00
8366;BME280;4220;42.502;24.188;2023-01-27T12:03:56;94102.94;;;3.37;100.00
8366;BME280;4220;42.502;24.188;2023-01-27T12:06:33;94107.75;;;3.40;100.00
8366;BME280;4220;42.502;24.188;2023-01-27T12:09:01;94112.59;;;3.36;100.00
8366;BME280;4220;42.502;24.188;2023-01-27T12:11:29;94114.22;;;3.44;100.00
8366;BME280;4220;42.502;24.188;2023-01-27T12:13:58;94117.44;;;3.52;100.00
8366;BME280;4220;42.502;24.188;2023-01-27T12:16:39;94115.22;;;3.43;100.00
8366;BME280;4220;42.502;24.188;2023-01-27T12:19:21;94112.19;;;3.33;100.00
8366;BME280;4220;42.502;24.188;2023-01-27T12:21:51;94092.44;;;3.30;100.00
8366;BME280;4220;42.502;24.188;2023-01-27T12:24:26;94103.13;;;3.28;100.00
8366;BME280;4220;42.502;24.188;2023-01-27T12:26:55;94101.72;;;3.26;100.00
8366;BME280;4220;42.502;24.188;2023-01-27T12:29:25;94086.78;;;3.20;100.00
8366;BME280;4220;42.502;24.188;2023-01-27T12:31:56;94102.31;;;3.35;100.00
8366;BME280;4220;42.502;24.188;2023-01-27T12:34:29;94102.31;;;3.35;100.00
8366;BME280;4220;42.502;24.188;2023-01-27T12:36:57;94099.09;;;3.33;100.00
8366;BME280;4220;42.502;24.188;2023-01-27T12:39:31;94110.16;;;3.35;100.00
8366;BME280;4220;42.502;24.188;2023-01-27T12:41:59;94102.53;;;3.26;100.00
8366;BME280;4220;42.502;24.188;2023-01-27T12:44:39;94106.75;;;3.14;100.00
8366;BME280;4220;42.502;24.188;2023-01-27T12:47:19;94105.09;;;3.00;100.00
8366;BME280;4220;42.502;24.188;2023-01-27T12:49:48;94101.47;;;3.08;100.00
8366;BME280;4220;42.502;24.188;2023-01-27T12:52:17;94096.88;;;3.16;100.00
8366;BME280;4220;42.502;24.188;2023-01-27T12:54:46;94105.72;;;3.15;100.00
8366;BME280;4220;42.502;24.188;2023-01-27T12:57:18;94097.47;;;3.12;100.00
8366;BME280;4220;42.502;24.188;2023-01-27T12:59:49;94092.03;;;3.13;100.00
8366;BME280;4220;42.502;24.188;2023-01-27T13:02:18;94089.78;;;3.10;100.00
8366;BME280;4220;42.502;24.188;2023-01-27T13:04:49;94094.63;;;3.20;100.00
8366;BME280;4220;42.502;24.188;2023-01-27T13:07:19;94084.34;;;3.05;100.00
8366;BME280;4220;42.502;24.188;2023-01-27T13:09:53;94087.97;;;3.17;100.00
8366;BME280;4220;42.502;24.188;2023-01-27T13:12:23;94063.41;;;3.05;100.00
8366;BME280;4220;42.502;24.188;2023-01-27T13:14:54;94090.63;;;3.30;100.00
8366;BME280;4220;42.502;24.188;2023-01-27T13:17:27;94092.63;;;3.35;100.00
8366;BME280;4220;42.502;24.188;2023-01-27T13:19:58;94088.22;;;3.36;100.00
8366;BME280;4220;42.502;24.188;2023-01-27T13:22:26;94092.44;;;3.50;100.00
8366;BME280;4220;42.502;24.188;2023-01-27T13:24:59;94095.25;;;3.48;100.00
8366;BME280;4220;42.502;24.188;2023-01-27T13:27:35;94103.31;;;3.34;100.00